createdAt,value
2022-08-14T00:02:09.187Z,25.69
2022-08-14T00:05:15.064Z,25.70
2022-08-14T00:08:44.762Z,25.78
2022-08-14T00:11:43.549Z,25.62
2022-08-14T00:14:47.121Z,25.71
2022-08-14T00:17:59.346Z,25.73
2022-08-14T00:21:03.114Z,25.60
2022-08-14T00:24:09.654Z,25.76
2022-08-14T00:27:14.473Z,25.59
2022-08-14T00:30:20.813Z,25.58
2022-08-14T00:33:24.211Z,25.32
2022-08-14T00:36:49.790Z,25.27
2022-08-14T00:39:53.434Z,25.34
2022-08-14T00:42:58.187Z,25.36
2022-08-14T00:46:05.284Z,25.42
2022-08-14T00:49:14.777Z,25.49
2022-08-14T00:52:19.144Z,25.70
2022-08-14T00:55:23.337Z,25.75
2022-08-14T00:58:35.185Z,25.87
2022-08-14T01:01:39.852Z,25.16
2022-08-14T01:04:54.408Z,25.26
2022-08-14T01:07:58.628Z,25.35
2022-08-14T01:11:02.717Z,25.25
2022-08-14T01:14:25.699Z,25.40
2022-08-14T01:17:49.823Z,25.37
2022-08-14T01:21:13.263Z,25.73
2022-08-14T01:24:22.995Z,25.74
2022-08-14T01:27:53.479Z,25.51
2022-08-14T01:31:00.083Z,25.50
2022-08-14T01:35:17.492Z,25.44
2022-08-14T01:37:31.482Z,25.52
2022-08-14T01:40:41.929Z,25.52
2022-08-14T01:43:56.714Z,25.56
2022-08-14T01:47:02.040Z,25.26
2022-08-14T01:50:11.368Z,25.23
2022-08-14T01:53:17.850Z,25.09
2022-08-14T01:56:37.168Z,25.06
2022-08-14T01:59:44.676Z,25.28
2022-08-14T02:02:48.226Z,25.33
2022-08-14T02:06:03.906Z,25.62
2022-08-14T02:09:23.226Z,25.70
2022-08-14T02:12:31.053Z,25.61
2022-08-14T02:15:35.437Z,25.63
2022-08-14T02:18:40.043Z,25.57
2022-08-14T02:21:48.732Z,25.82
2022-08-14T02:24:52.555Z,25.92
2022-08-14T02:28:22.971Z,25.86
2022-08-14T02:31:28.366Z,25.78
2022-08-14T02:34:36.319Z,25.80
2022-08-14T02:37:47.665Z,25.27
2022-08-14T02:40:52.055Z,25.30
2022-08-14T02:44:00.787Z,25.39
2022-08-14T02:47:07.150Z,25.25
2022-08-14T02:50:18.159Z,25.31
2022-08-14T02:53:21.454Z,25.08
2022-08-14T02:56:29.949Z,25.37
2022-08-14T02:59:51.498Z,25.19
2022-08-14T03:02:58.488Z,24.79
2022-08-14T03:06:03.067Z,25.20
2022-08-14T03:09:06.944Z,25.06
2022-08-14T03:12:12.649Z,25.01
2022-08-14T03:15:22.819Z,25.16
2022-08-14T03:18:31.598Z,25.12
2022-08-14T03:21:39.728Z,25.38
2022-08-14T03:24:44.042Z,24.88
2022-08-14T03:27:48.288Z,24.77
2022-08-14T03:31:04.431Z,25.06
2022-08-14T03:34:24.682Z,25.07
2022-08-14T03:37:52.003Z,24.73
2022-08-14T03:40:59.749Z,24.89
2022-08-14T03:45:25.403Z,25.17
2022-08-14T03:47:46.153Z,25.05
2022-08-14T03:50:52.814Z,25.11
2022-08-14T03:54:04.949Z,25.06
2022-08-14T03:57:08.825Z,25.21
2022-08-14T04:00:40.429Z,24.99
2022-08-14T04:03:39.352Z,24.93
2022-08-14T04:06:47.551Z,25.22
2022-08-14T04:09:52.767Z,25.01
2022-08-14T04:13:03.509Z,25.24
2022-08-14T04:16:12.490Z,25.24
2022-08-14T04:19:19.991Z,25.42
2022-08-14T04:22:23.853Z,25.61
2022-08-14T04:25:27.413Z,25.04
2022-08-14T04:29:06.834Z,25.55
2022-08-14T04:32:58.456Z,25.76
2022-08-14T04:35:19.000Z,25.46
2022-08-14T04:38:47.115Z,25.52
2022-08-14T04:42:11.880Z,25.25
2022-08-14T04:45:17.684Z,25.20
2022-08-14T04:48:31.638Z,24.99
2022-08-14T04:52:04.253Z,25.34
2022-08-14T04:55:19.103Z,25.25
2022-08-14T04:58:32.790Z,25.03
2022-08-14T05:01:40.016Z,25.40
2022-08-14T05:04:45.132Z,25.24
2022-08-14T05:08:01.298Z,25.00
2022-08-14T05:11:07.179Z,25.24
2022-08-14T05:14:45.432Z,25.35
2022-08-14T05:17:58.531Z,25.55
2022-08-14T05:21:59.697Z,26.36
2022-08-14T05:24:33.848Z,26.51
2022-08-14T05:27:37.115Z,26.73
2022-08-14T05:30:43.828Z,27.11
2022-08-14T05:33:56.552Z,27.17
2022-08-14T05:37:02.321Z,27.34
2022-08-14T05:40:10.325Z,27.44
2022-08-14T05:43:16.511Z,28.04
2022-08-14T05:46:22.993Z,27.94
2022-08-14T05:49:33.288Z,27.73
2022-08-14T05:52:39.213Z,27.43
2022-08-14T05:55:44.945Z,26.83
2022-08-14T05:58:48.376Z,26.52
2022-08-14T06:01:51.690Z,25.93
2022-08-14T06:04:55.280Z,25.83
2022-08-14T06:08:02.928Z,26.14
2022-08-14T06:11:14.888Z,26.03
2022-08-14T06:14:31.366Z,26.05
2022-08-14T06:17:47.044Z,26.27
2022-08-14T06:20:59.331Z,25.80
2022-08-14T06:24:02.661Z,25.97
2022-08-14T06:27:09.820Z,25.49
2022-08-14T06:30:16.255Z,25.74
2022-08-14T06:33:20.827Z,25.58
2022-08-14T06:36:26.029Z,25.48
2022-08-14T06:39:36.294Z,25.54
2022-08-14T06:42:43.269Z,25.05
2022-08-14T06:45:53.893Z,25.38
2022-08-14T06:48:57.954Z,25.48
2022-08-14T06:52:01.772Z,25.61
2022-08-14T06:55:05.887Z,25.85
2022-08-14T06:58:28.725Z,26.08
2022-08-14T07:01:51.918Z,26.19
2022-08-14T07:05:22.811Z,26.11
2022-08-14T07:08:31.612Z,26.25
2022-08-14T07:11:35.216Z,26.23
2022-08-14T07:14:40.027Z,26.45
2022-08-14T07:17:52.141Z,26.35
2022-08-14T07:20:56.767Z,26.24
2022-08-14T07:24:00.217Z,26.46
2022-08-14T07:27:04.183Z,25.85
2022-08-14T07:30:34.011Z,26.09
2022-08-14T07:33:37.538Z,26.23
2022-08-14T07:36:53.649Z,25.88
2022-08-14T07:40:06.391Z,25.83
2022-08-14T07:43:14.399Z,25.81
2022-08-14T07:46:21.174Z,25.84
2022-08-14T07:49:30.882Z,24.96
2022-08-14T07:52:34.258Z,25.30
2022-08-14T07:55:37.599Z,24.97
2022-08-14T07:58:51.719Z,24.72
2022-08-14T08:01:58.657Z,24.93
2022-08-14T08:05:02.714Z,25.01
2022-08-14T08:08:08.455Z,24.55
2022-08-14T08:11:36.983Z,24.18
2022-08-14T08:14:56.873Z,24.49
2022-08-14T08:18:10.245Z,24.71
2022-08-14T08:21:33.353Z,24.69
2022-08-14T08:24:38.853Z,24.66
2022-08-14T08:27:44.810Z,24.72
2022-08-14T08:30:51.410Z,24.65
2022-08-14T08:33:58.025Z,24.59
2022-08-14T08:37:07.078Z,24.55
2022-08-14T08:40:11.939Z,24.53
2022-08-14T08:43:25.893Z,24.23
2022-08-14T08:46:29.434Z,24.56
2022-08-14T08:49:53.010Z,24.64
2022-08-14T08:53:05.223Z,24.80
2022-08-14T08:56:08.759Z,24.68
2022-08-14T08:59:21.965Z,24.23
2022-08-14T09:02:25.966Z,24.20
2022-08-14T09:05:33.554Z,24.19
2022-08-14T09:08:37.923Z,24.55
2022-08-14T09:11:41.310Z,24.76
2022-08-14T09:14:44.823Z,24.54
2022-08-14T09:17:48.612Z,24.75
2022-08-14T09:20:58.770Z,25.30
2022-08-14T09:24:29.478Z,24.59
2022-08-14T09:27:26.379Z,24.74
2022-08-14T09:30:32.049Z,24.75
2022-08-14T09:33:56.374Z,25.03
2022-08-14T09:37:18.996Z,25.09
2022-08-14T09:40:37.264Z,25.04
2022-08-14T09:43:53.593Z,24.37
2022-08-14T09:46:58.879Z,24.41
2022-08-14T09:50:02.226Z,23.69
2022-08-14T09:53:17.974Z,23.71
2022-08-14T09:56:30.250Z,24.04
2022-08-14T09:59:42.224Z,23.94
2022-08-14T10:02:54.470Z,23.80
2022-08-14T10:06:07.474Z,23.78
2022-08-14T10:09:16.831Z,23.96
2022-08-14T10:12:29.141Z,24.25
2022-08-14T10:15:34.731Z,24.44
2022-08-14T10:18:39.875Z,24.49
2022-08-14T10:23:11.189Z,23.92
2022-08-14T10:25:15.593Z,24.41
2022-08-14T10:28:51.638Z,24.64
2022-08-14T10:31:45.743Z,24.24
2022-08-14T10:34:52.735Z,24.40
2022-08-14T10:37:56.991Z,24.20
2022-08-14T10:41:13.966Z,24.42
2022-08-14T10:44:21.666Z,24.44
2022-08-14T10:48:07.499Z,24.11
2022-08-14T10:51:00.501Z,24.60
2022-08-14T10:54:16.908Z,24.59
2022-08-14T10:57:35.671Z,24.60
2022-08-14T11:00:43.530Z,24.05
2022-08-14T11:03:56.399Z,23.94
2022-08-14T11:07:00.551Z,24.29
2022-08-14T11:10:09.564Z,23.81
2022-08-14T11:13:23.874Z,23.77
2022-08-14T11:16:29.566Z,24.09
2022-08-14T11:19:33.903Z,24.23
2022-08-14T11:22:56.055Z,24.20
2022-08-14T11:26:02.382Z,24.05
2022-08-14T11:29:12.632Z,23.95
2022-08-14T11:32:20.227Z,23.75
2022-08-14T11:35:26.612Z,23.96
2022-08-14T11:38:48.184Z,24.05
2022-08-14T11:41:55.659Z,24.49
2022-08-14T11:45:11.006Z,24.52
2022-08-14T11:49:04.126Z,24.45
2022-08-14T11:51:42.975Z,24.38
2022-08-14T11:55:00.646Z,24.51
2022-08-14T11:58:06.431Z,24.35
2022-08-14T12:01:11.402Z,24.13
2022-08-14T12:04:21.705Z,24.04
2022-08-14T12:07:36.940Z,23.77
2022-08-14T12:10:58.878Z,23.36
2022-08-14T12:14:13.396Z,23.72
2022-08-14T12:17:47.749Z,23.93
2022-08-14T12:20:54.514Z,23.52
2022-08-14T12:24:06.146Z,23.76
2022-08-14T12:27:13.227Z,23.30
2022-08-14T12:30:29.169Z,22.85
2022-08-14T12:33:47.060Z,23.40
2022-08-14T12:37:06.068Z,23.53
2022-08-14T12:40:15.509Z,23.54
2022-08-14T12:43:21.604Z,23.50
2022-08-14T12:46:28.636Z,23.32
2022-08-14T12:49:34.393Z,23.58
2022-08-14T12:52:53.951Z,23.70
2022-08-14T12:56:22.647Z,23.45
2022-08-14T12:59:37.240Z,23.84
2022-08-14T13:02:47.005Z,23.87
2022-08-14T13:06:00.599Z,23.91
2022-08-14T13:09:07.793Z,23.90
2022-08-14T13:12:34.801Z,23.49
2022-08-14T13:15:40.629Z,23.49
2022-08-14T13:18:46.909Z,23.39
2022-08-14T13:21:58.802Z,23.73
2022-08-14T13:25:10.778Z,23.69
2022-08-14T13:28:30.265Z,23.54
2022-08-14T13:31:39.562Z,23.16
2022-08-14T13:34:46.078Z,23.17
2022-08-14T13:37:53.720Z,23.29
2022-08-14T13:40:57.392Z,23.33
2022-08-14T13:44:01.624Z,23.40
2022-08-14T13:47:07.010Z,23.47
2022-08-14T13:50:15.479Z,23.64
2022-08-14T13:53:26.976Z,23.77
2022-08-14T13:56:40.394Z,23.78
2022-08-14T13:59:46.160Z,23.71
2022-08-14T14:02:53.542Z,23.78
2022-08-14T14:05:58.344Z,23.74
2022-08-14T14:09:04.787Z,23.62
2022-08-14T14:12:36.678Z,23.78
2022-08-14T14:15:33.846Z,23.61
2022-08-14T14:18:56.182Z,23.29
2022-08-14T14:22:00.779Z,23.73
2022-08-14T14:25:09.982Z,23.80
2022-08-14T14:28:16.900Z,23.73
2022-08-14T14:31:31.080Z,23.50
2022-08-14T14:34:37.880Z,23.63
2022-08-14T14:37:42.230Z,23.44
2022-08-14T14:41:00.625Z,23.25
2022-08-14T14:44:06.331Z,23.68
2022-08-14T14:47:15.632Z,23.95
2022-08-14T14:50:22.046Z,24.22
2022-08-14T14:53:31.312Z,24.30
2022-08-14T14:56:51.481Z,24.38
2022-08-14T14:59:55.939Z,24.50
2022-08-14T15:03:00.014Z,24.57
2022-08-14T15:06:03.827Z,24.60
2022-08-14T15:09:10.097Z,24.80
2022-08-14T15:12:55.475Z,24.87
2022-08-14T15:15:47.619Z,24.92
2022-08-14T15:18:54.854Z,24.89
2022-08-14T15:21:59.497Z,25.02
2022-08-14T15:25:02.925Z,24.77
2022-08-14T15:28:11.679Z,24.83
2022-08-14T15:31:16.743Z,24.24
2022-08-14T15:34:43.445Z,24.36
2022-08-14T15:37:44.710Z,24.33
2022-08-14T15:40:56.130Z,24.41
2022-08-14T15:44:01.142Z,24.28
2022-08-14T15:47:09.392Z,24.33
2022-08-14T15:50:13.090Z,24.43
2022-08-14T15:53:16.623Z,24.39
2022-08-14T15:56:42.178Z,24.21
2022-08-14T16:00:03.293Z,24.33
2022-08-14T16:03:16.476Z,23.95
2022-08-14T16:06:21.322Z,23.97
2022-08-14T16:09:26.221Z,23.82
2022-08-14T16:12:41.577Z,23.98
2022-08-14T16:15:53.216Z,23.98
2022-08-14T16:18:59.108Z,23.92
2022-08-14T16:22:57.189Z,23.60
2022-08-14T16:25:34.419Z,23.26
2022-08-14T16:28:39.120Z,23.39
2022-08-14T16:31:45.048Z,23.54
2022-08-14T16:34:54.725Z,23.53
2022-08-14T16:38:19.865Z,23.58
2022-08-14T16:41:28.267Z,23.26
2022-08-14T16:44:40.878Z,23.38
2022-08-14T16:47:47.872Z,23.45
2022-08-14T16:50:54.013Z,23.31
2022-08-14T16:54:00.433Z,23.19
2022-08-14T16:57:22.553Z,23.28
2022-08-14T17:00:32.715Z,23.54
2022-08-14T17:03:53.122Z,23.60
2022-08-14T17:06:58.076Z,23.68
2022-08-14T17:10:09.840Z,23.74
2022-08-14T17:13:19.561Z,23.76
2022-08-14T17:16:24.600Z,23.87
2022-08-14T17:19:40.274Z,23.79
2022-08-14T17:22:50.202Z,23.77
2022-08-14T17:25:53.610Z,23.70
2022-08-14T17:29:06.751Z,23.79
2022-08-14T17:35:57.829Z,23.61
2022-08-14T17:39:06.929Z,23.54
2022-08-14T17:42:13.474Z,23.57
2022-08-14T17:45:18.915Z,23.52
2022-08-14T17:49:14.089Z,23.49
2022-08-14T17:52:50.166Z,23.50
2022-08-14T17:56:48.601Z,23.43
2022-08-14T18:00:12.376Z,23.46
2022-08-14T18:03:50.292Z,23.58
2022-08-14T18:06:58.818Z,23.70
2022-08-14T18:10:52.363Z,23.65
2022-08-14T18:13:51.143Z,23.51
2022-08-14T18:16:57.345Z,23.49
2022-08-14T18:20:01.542Z,23.55
2022-08-14T18:23:25.158Z,23.59
2022-08-14T18:26:37.141Z,23.43
2022-08-14T18:29:54.786Z,23.15
2022-08-14T18:33:14.142Z,23.14
2022-08-14T18:36:47.871Z,23.16
2022-08-14T18:40:03.111Z,23.20
2022-08-14T18:43:09.031Z,23.15
2022-08-14T18:46:59.843Z,23.19
2022-08-14T18:50:00.918Z,23.38
2022-08-14T18:53:10.623Z,23.17
2022-08-14T18:56:18.409Z,23.04
2022-08-14T18:59:35.710Z,23.17
2022-08-14T19:02:43.776Z,23.33
2022-08-14T19:05:59.865Z,23.25
2022-08-14T19:09:04.479Z,23.33
2022-08-14T19:12:08.236Z,23.38
2022-08-14T19:15:25.770Z,23.34
2022-08-14T19:18:38.332Z,23.35
2022-08-14T19:21:44.316Z,22.59
2022-08-14T19:24:50.874Z,22.99
2022-08-14T19:28:31.555Z,22.95
2022-08-14T19:31:42.480Z,22.90
2022-08-14T19:34:59.877Z,22.90
2022-08-14T19:38:03.394Z,22.89
2022-08-14T19:41:16.123Z,23.03
2022-08-14T19:44:20.700Z,22.80
2022-08-14T19:47:41.034Z,23.06
2022-08-14T19:50:46.895Z,22.75
2022-08-14T19:53:56.462Z,22.96
2022-08-14T19:56:59.999Z,22.96
2022-08-14T20:00:28.342Z,22.99
2022-08-14T20:03:59.777Z,23.05
2022-08-14T20:07:09.136Z,22.92
2022-08-14T20:11:05.558Z,23.04
2022-08-14T20:14:01.055Z,23.08
2022-08-14T20:17:06.997Z,23.09
2022-08-14T20:20:31.754Z,23.12
2022-08-14T20:23:38.226Z,22.98
2022-08-14T20:26:46.873Z,22.99
2022-08-14T20:30:29.717Z,22.97
2022-08-14T20:33:47.680Z,23.07
2022-08-14T20:37:01.922Z,23.06
2022-08-14T20:40:24.195Z,23.12
2022-08-14T20:43:47.268Z,22.64
2022-08-14T20:47:01.005Z,22.47
2022-08-14T20:50:16.671Z,22.63
2022-08-14T20:53:34.633Z,22.28
2022-08-14T20:56:44.204Z,22.48
2022-08-14T20:59:57.214Z,22.23
2022-08-14T21:03:32.461Z,22.08
2022-08-14T21:07:22.969Z,22.46
2022-08-14T21:10:35.412Z,22.58
2022-08-14T21:14:20.550Z,22.40
2022-08-14T21:17:04.282Z,22.22
2022-08-14T21:20:25.610Z,22.39
2022-08-14T21:23:32.450Z,22.44
2022-08-14T21:26:51.403Z,22.30
2022-08-14T21:29:59.927Z,22.41
2022-08-14T21:33:05.267Z,22.41
2022-08-14T21:36:21.069Z,22.50
2022-08-14T21:39:27.234Z,22.43
2022-08-14T21:42:31.864Z,22.35
2022-08-14T21:45:39.350Z,22.29
2022-08-14T21:48:44.256Z,22.30
2022-08-14T21:51:59.925Z,22.25
2022-08-14T21:55:12.199Z,21.89
2022-08-14T21:58:53.150Z,22.13
2022-08-14T22:02:00.035Z,21.78
2022-08-14T22:05:05.678Z,22.07
2022-08-14T22:08:14.379Z,22.15
2022-08-14T22:11:19.968Z,22.06
2022-08-14T22:14:25.994Z,21.95
2022-08-14T22:17:32.446Z,21.90
2022-08-14T22:20:37.677Z,22.19
2022-08-14T22:23:42.786Z,22.21
2022-08-14T22:26:46.553Z,22.26
2022-08-14T22:29:54.793Z,22.18
2022-08-14T22:33:01.166Z,22.19
2022-08-14T22:36:26.278Z,22.45
2022-08-14T22:39:40.061Z,22.24
2022-08-14T22:42:57.503Z,22.19
2022-08-14T22:46:14.345Z,22.31
2022-08-14T22:50:31.284Z,22.42
2022-08-14T22:52:49.581Z,22.31
2022-08-14T22:55:54.579Z,22.01
2022-08-14T22:58:59.472Z,22.20
2022-08-14T23:02:06.134Z,22.28
2022-08-14T23:05:15.812Z,22.39
2022-08-14T23:09:00.526Z,22.06
2022-08-14T23:11:46.856Z,22.19
2022-08-14T23:14:50.482Z,22.00
2022-08-14T23:17:55.050Z,21.67
2022-08-14T23:20:59.400Z,21.73
2022-08-14T23:24:03.268Z,21.68
2022-08-14T23:27:09.362Z,21.85
2022-08-14T23:30:34.000Z,21.98
2022-08-14T23:33:42.028Z,22.16
2022-08-14T23:36:57.739Z,22.07
2022-08-14T23:40:02.116Z,22.02
2022-08-14T23:43:09.345Z,21.74
2022-08-14T23:46:15.035Z,21.52
2022-08-14T23:49:20.460Z,21.42
2022-08-14T23:52:51.094Z,21.60
2022-08-14T23:55:54.644Z,21.75
2022-08-14T23:59:03.036Z,21.71
